Time;durP1;ratioP1;P1;durP2;ratioP2;P2;SDS_P1;SDS_P2;PMS_P1;PMS_P2;Temp;Humidity;BMP_temperature;BMP_pressure;BME280_temperature;BME280_humidity;BME280_pressure;Samples;Min_cycle;Max_cycle;Signal;HPM_P1;HPM_P2
2021/09/14 00:00:42;;;;;;;4.07;3.10;;;11.70;99.90;;;;;;5119839;27;20548;-56
2021/09/14 00:03:09;;;;;;;5.50;3.23;;;11.70;99.90;;;;;;5114150;27;20204;-56
2021/09/14 00:05:36;;;;;;;5.70;3.20;;;11.70;99.90;;;;;;5122944;27;20584;-50
2021/09/14 00:08:04;;;;;;;7.57;2.80;;;11.50;99.90;;;;;;5126310;27;20589;-56
2021/09/14 00:10:30;;;;;;;4.47;3.40;;;11.50;99.90;;;;;;5123932;27;20192;-52
2021/09/14 00:12:57;;;;;;;6.30;2.70;;;11.40;99.90;;;;;;5124252;27;20692;-57
2021/09/14 00:15:23;;;;;;;3.40;3.10;;;11.30;99.90;;;;;;5117735;27;20224;-52
2021/09/14 00:17:50;;;;;;;2.87;2.57;;;11.30;99.90;;;;;;5124442;27;20193;-58
2021/09/14 00:20:17;;;;;;;5.90;2.77;;;11.20;99.90;;;;;;5099893;27;22967;-51
2021/09/14 00:22:45;;;;;;;4.50;3.00;;;11.20;99.90;;;;;;5125960;27;20230;-53
2021/09/14 00:25:11;;;;;;;6.43;2.70;;;11.20;99.90;;;;;;5120723;27;20219;-52
2021/09/14 00:27:38;;;;;;;3.00;2.70;;;11.30;99.90;;;;;;5123949;27;20188;-52
2021/09/14 00:30:06;;;;;;;3.30;3.00;;;11.30;99.90;;;;;;5116512;27;20201;-56
2021/09/14 00:32:32;;;;;;;6.00;3.00;;;11.30;99.90;;;;;;5124202;27;20201;-50
2021/09/14 00:34:59;;;;;;;3.50;2.70;;;11.30;99.90;;;;;;5105614;27;20774;-56
2021/09/14 00:37:25;;;;;;;3.90;2.57;;;11.30;99.90;;;;;;5124336;27;20195;-52
2021/09/14 00:39:53;;;;;;;4.50;3.13;;;11.10;99.90;;;;;;5127906;27;20219;-58
2021/09/14 00:42:20;;;;;;;6.83;2.80;;;11.20;99.90;;;;;;5121088;27;20203;-50
2021/09/14 00:44:47;;;;;;;4.90;2.90;;;11.10;99.90;;;;;;5124431;27;20197;-53
2021/09/14 00:47:14;;;;;;;2.70;2.50;;;11.20;99.90;;;;;;5121200;27;20191;-55
2021/09/14 00:49:41;;;;;;;2.90;2.60;;;11.10;99.90;;;;;;5107286;27;20204;-51
2021/09/14 00:52:09;;;;;;;2.63;2.40;;;11.10;99.90;;;;;;5119143;27;20581;-57
2021/09/14 00:54:37;;;;;;;2.73;2.53;;;11.10;99.90;;;;;;5124212;27;20208;-52
2021/09/14 00:57:06;;;;;;;5.67;2.47;;;11.10;99.90;;;;;;5119702;27;20681;-57
2021/09/14 00:59:32;;;;;;;3.83;2.57;;;11.10;99.90;;;;;;5124212;27;20212;-53
2021/09/14 01:01:59;;;;;;;3.73;2.47;;;;;;;;;;5121248;27;20754;-56
2021/09/14 01:04:26;;;;;;;4.37;2.60;;;11.00;99.90;;;;;;5105991;27;20212;-53
2021/09/14 01:06:53;;;;;;;3.90;2.60;;;11.00;99.90;;;;;;5120827;27;20230;-56
2021/09/14 01:09:21;;;;;;;5.73;2.60;;;11.00;99.90;;;;;;5120558;27;20216;-56
2021/09/14 01:11:48;;;;;;;2.90;2.67;;;11.00;99.90;;;;;;5124690;27;20193;-52
2021/09/14 01:14:16;;;;;;;5.70;2.60;;;11.00;99.90;;;;;;5119627;27;20192;-56
2021/09/14 01:16:43;;;;;;;4.97;2.87;;;11.00;99.90;;;;;;5123795;27;20239;-53
2021/09/14 01:19:11;;;;;;;5.33;2.70;;;11.00;99.90;;;;;;5106074;27;20225;-57
2021/09/14 01:21:38;;;;;;;4.53;2.50;;;10.90;99.90;;;;;;5112205;27;20282;-51
2021/09/14 01:24:07;;;;;;;4.13;2.90;;;10.90;99.90;;;;;;5119325;27;20188;-56
2021/09/14 01:26:41;;;;;;;3.47;3.07;;;10.90;99.90;;;;;;5121762;27;20215;-55
2021/09/14 01:30:11;;;;;;;5.23;2.83;;;10.80;99.90;;;;;;5118510;27;20176;-52
2021/09/14 01:32:05;;;;;;;5.27;2.80;;;10.80;99.90;;;;;;5120238;27;20185;-57
2021/09/14 01:34:33;;;;;;;5.23;2.30;;;10.80;99.90;;;;;;5121951;27;20574;-54
2021/09/14 01:37:02;;;;;;;4.20;2.50;;;10.80;99.90;;;;;;5100902;27;20293;-56
2021/09/14 01:39:33;;;;;;;4.10;3.00;;;;;;;;;;5119779;27;20216;-54
2021/09/14 01:42:00;;;;;;;2.93;2.63;;;10.70;99.90;;;;;;5117371;27;20192;-52
2021/09/14 01:44:27;;;;;;;8.03;2.43;;;10.60;99.90;;;;;;5124888;27;20672;-53
2021/09/14 01:46:53;;;;;;;2.53;2.13;;;10.60;99.90;;;;;;5118271;27;20872;-55
2021/09/14 01:49:20;;;;;;;4.20;2.63;;;10.50;99.90;;;;;;5123374;27;20189;-52
2021/09/14 01:51:47;;;;;;;3.83;2.57;;;10.50;99.90;;;;;;5106123;27;20208;-56
2021/09/14 01:54:14;;;;;;;5.80;3.00;;;10.50;99.90;;;;;;5121681;27;20650;-51
2021/09/14 01:56:42;;;;;;;3.83;2.47;;;10.50;99.90;;;;;;5121449;27;20615;-58
2021/09/14 01:59:11;;;;;;;2.63;2.43;;;10.50;99.90;;;;;;5121158;28;20215;-50
2021/09/14 02:01:42;;;;;;;3.47;2.57;;;10.50;99.90;;;;;;5119691;28;20205;-57
2021/09/14 02:04:12;;;;;;;4.67;2.53;;;10.60;99.90;;;;;;5121208;28;20189;-55
2021/09/14 02:07:12;;;;;;;3.43;2.17;;;10.60;99.90;;;;;;5122530;27;20688;-57
2021/09/14 02:43:05;;;;;;;3.40;2.17;;;10.40;99.90;;;;;;5068638;28;20259;-53
2021/09/14 02:56:56;;;;;;;3.00;2.47;;;10.50;99.90;;;;;;5118461;27;20223;-57
2021/09/14 02:59:22;;;;;;;3.00;2.60;;;10.50;99.90;;;;;;5127490;27;20196;-53
2021/09/14 03:01:50;;;;;;;5.93;2.63;;;10.50;99.90;;;;;;5123191;27;20200;-57
2021/09/14 03:04:17;;;;;;;2.67;2.37;;;10.50;99.90;;;;;;5127552;27;20189;-53
2021/09/14 03:06:45;;;;;;;2.87;2.37;;;10.50;99.90;;;;;;5123797;27;20277;-57
2021/09/14 03:09:25;;;;;;;4.03;2.03;;;10.40;99.90;;;;;;5118291;27;20196;-52
2021/09/14 03:11:52;;;;;;;3.30;2.20;;;10.40;99.90;;;;;;5114833;27;20213;-58
2021/09/14 03:14:18;;;;;;;2.77;2.40;;;10.50;99.90;;;;;;5129457;27;20195;-53
2021/09/14 03:16:46;;;;;;;3.60;2.30;;;10.50;99.90;;;;;;5135701;27;20260;-55
2021/09/14 03:19:14;;;;;;;5.23;2.40;;;10.60;99.90;;;;;;5145504;27;20307;-50
2021/09/14 03:21:41;;;;;;;5.20;2.60;;;10.60;99.90;;;;;;5144942;27;20255;-57
2021/09/14 03:24:10;;;;;;;5.63;2.90;;;10.60;99.90;;;;;;5134569;27;21251;-53
2021/09/14 03:26:37;;;;;;;4.07;3.20;;;10.60;99.90;;;;;;5105276;27;20217;-57
2021/09/14 03:29:04;;;;;;;3.57;2.90;;;10.60;99.90;;;;;;5121557;27;20279;-53
2021/09/14 03:31:38;;;;;;;4.77;2.40;;;10.70;99.90;;;;;;5124785;27;20205;-57
2021/09/14 03:34:06;;;;;;;3.27;2.63;;;10.70;99.90;;;;;;5117893;27;20208;-53
2021/09/14 03:36:34;;;;;;;5.97;2.57;;;10.70;99.90;;;;;;5126680;27;20213;-53
2021/09/14 03:39:00;;;;;;;5.70;2.67;;;10.70;99.90;;;;;;5115667;27;20224;-57
2021/09/14 03:41:27;;;;;;;5.37;2.40;;;10.70;99.90;;;;;;5124886;27;20250;-51
2021/09/14 03:43:53;;;;;;;5.20;2.57;;;10.70;99.90;;;;;;5107523;27;20204;-52
2021/09/14 03:46:22;;;;;;;3.77;2.47;;;10.70;99.90;;;;;;5130547;27;20235;-53
2021/09/14 03:48:49;;;;;;;5.27;2.33;;;10.70;99.90;;;;;;5142825;27;20617;-57
2021/09/14 03:51:17;;;;;;;6.33;2.40;;;10.70;99.90;;;;;;5143492;27;20192;-54
2021/09/14 03:53:45;;;;;;;3.63;2.43;;;10.70;99.90;;;;;;5116070;27;20197;-56
2021/09/14 03:56:12;;;;;;;4.20;2.37;;;10.70;99.90;;;;;;5124034;27;20204;-49
2021/09/14 03:58:40;;;;;;;2.37;2.20;;;10.70;99.90;;;;;;5109230;27;20219;-56
2021/09/14 04:01:09;;;;;;;7.17;2.00;;;10.70;99.90;;;;;;5124090;27;20192;-53
2021/09/14 04:03:41;;;;;;;4.23;2.23;;;10.70;99.90;;;;;;5123713;27;20252;-57
2021/09/14 04:09:05;;;;;;;5.87;2.70;;;10.70;99.90;;;;;;5074771;28;20200;-51
2021/09/14 04:11:48;;;;;;;2.90;2.57;;;10.60;99.90;;;;;;5107067;27;20196;-57
2021/09/14 04:14:15;;;;;;;2.97;2.37;;;10.60;99.90;;;;;;5103525;27;20210;-52
2021/09/14 04:16:41;;;;;;;4.77;2.70;;;10.60;99.90;;;;;;5122855;27;20216;-57
2021/09/14 04:19:08;;;;;;;7.33;2.50;;;10.70;99.90;;;;;;5122570;27;20863;-53
2021/09/14 04:21:35;;;;;;;5.23;2.63;;;10.70;99.90;;;;;;5124184;27;20253;-57
2021/09/14 04:24:02;;;;;;;4.83;2.20;;;10.80;99.90;;;;;;5107385;27;20197;-56
2021/09/14 04:26:33;;;;;;;5.37;2.17;;;10.80;99.90;;;;;;5103410;28;20233;-50
2021/09/14 04:29:00;;;;;;;3.40;2.60;;;10.80;99.90;;;;;;5090604;27;20825;-51
2021/09/14 04:31:27;;;;;;;4.00;2.30;;;10.80;99.90;;;;;;5118348;27;20562;-55
2021/09/14 04:33:53;;;;;;;9.50;2.50;;;10.90;99.90;;;;;;5119756;27;20200;-55
2021/09/14 04:36:21;;;;;;;3.63;2.67;;;10.90;99.90;;;;;;5124514;27;20223;-56
2021/09/14 04:38:48;;;;;;;3.23;2.93;;;10.90;99.90;;;;;;5115991;27;20780;-57
2021/09/14 04:41:14;;;;;;;6.03;2.90;;;10.90;99.90;;;;;;5136826;27;20219;-53
2021/09/14 04:43:43;;;;;;;5.27;2.50;;;10.90;99.90;;;;;;5135216;27;20276;-57
2021/09/14 04:46:10;;;;;;;5.07;2.57;;;10.90;99.90;;;;;;5118518;27;20232;-53
2021/09/14 04:48:37;;;;;;;5.13;2.60;;;10.90;99.90;;;;;;5123370;27;20220;-56
2021/09/14 04:51:04;;;;;;;2.77;2.13;;;10.90;99.90;;;;;;5115275;27;20257;-54
2021/09/14 04:53:32;;;;;;;2.97;2.77;;;11.00;99.90;;;;;;5109840;27;20826;-56
2021/09/14 04:55:59;;;;;;;4.77;2.93;;;11.00;99.90;;;;;;5114445;27;20252;-52
2021/09/14 04:58:26;;;;;;;6.03;3.77;;;11.00;99.90;;;;;;5124068;27;20196;-50
2021/09/14 05:00:54;;;;;;;5.43;4.03;;;11.00;99.90;;;;;;5108985;27;20303;-56
2021/09/14 05:03:21;;;;;;;4.37;3.10;;;11.10;99.90;;;;;;5123877;27;20273;-51
2021/09/14 05:05:48;;;;;;;5.67;3.33;;;11.10;99.90;;;;;;5121589;27;20216;-56
2021/09/14 05:08:15;;;;;;;6.67;3.00;;;11.10;99.90;;;;;;5116477;27;20201;-53
2021/09/14 05:10:42;;;;;;;3.43;2.47;;;11.10;99.90;;;;;;5114982;27;20189;-57
2021/09/14 05:13:09;;;;;;;4.13;2.30;;;11.20;99.90;;;;;;5116896;27;20209;-54
2021/09/14 05:15:37;;;;;;;4.23;2.90;;;11.20;99.90;;;;;;5097528;27;20298;-57
2021/09/14 05:18:28;;;;;;;3.60;2.53;;;11.20;99.90;;;;;;5118473;27;20200;-50
2021/09/14 05:20:59;;;;;;;2.57;2.37;;;11.20;99.90;;;;;;5118223;27;20223;-51
2021/09/14 05:23:31;;;;;;;5.07;2.67;;;11.30;99.90;;;;;;5123688;27;20674;-53
2021/09/14 05:25:59;;;;;;;3.17;2.27;;;11.30;99.90;;;;;;5115401;27;21050;-53
2021/09/14 05:28:26;;;;;;;6.53;2.80;;;11.30;99.90;;;;;;5117026;27;20192;-51
2021/09/14 05:30:53;;;;;;;6.20;2.57;;;11.40;99.90;;;;;;5099928;27;20212;-50
2021/09/14 05:33:20;;;;;;;4.87;2.47;;;11.40;99.90;;;;;;5114820;27;20201;-51
2021/09/14 05:35:50;;;;;;;6.53;2.50;;;11.50;99.90;;;;;;5119345;27;20225;-56
2021/09/14 05:38:19;;;;;;;4.17;2.70;;;11.50;99.90;;;;;;5126067;27;20689;-50
2021/09/14 05:40:48;;;;;;;3.07;2.13;;;11.50;99.90;;;;;;5115926;27;20208;-57
2021/09/14 05:43:25;;;;;;;6.37;3.10;;;11.60;99.90;;;;;;5121348;27;20204;-57
2021/09/14 05:45:54;;;;;;;3.40;2.30;;;11.60;99.90;;;;;;5107387;27;20349;-56
2021/09/14 05:48:24;;;;;;;3.23;2.47;;;11.70;99.90;;;;;;5105591;27;20209;-54
2021/09/14 05:50:53;;;;;;;4.20;2.77;;;11.80;99.90;;;;;;5119045;27;20787;-51
2021/09/14 05:53:20;;;;;;;4.53;2.20;;;11.80;99.90;;;;;;5122050;27;20304;-52
2021/09/14 05:55:52;;;;;;;10.53;3.10;;;11.90;99.90;;;;;;5106778;27;20233;-50
2021/09/14 05:58:19;;;;;;;4.77;2.60;;;11.90;99.90;;;;;;5123555;27;20197;-53
2021/09/14 06:00:46;;;;;;;8.30;2.57;;;12.00;99.90;;;;;;5107318;27;20209;-55
2021/09/14 06:03:12;;;;;;;6.07;3.20;;;12.00;99.90;;;;;;5104561;27;20287;-51
2021/09/14 06:05:39;;;;;;;4.10;2.47;;;12.10;99.90;;;;;;5120112;27;20209;-56
2021/09/14 06:08:08;;;;;;;6.20;2.77;;;12.10;99.90;;;;;;5114410;27;20230;-54
2021/09/14 06:10:36;;;;;;;4.77;2.33;;;12.10;99.90;;;;;;5111025;27;20208;-55
2021/09/14 06:13:10;;;;;;;7.43;3.17;;;12.20;99.90;;;;;;5116592;27;20569;-53
2021/09/14 06:15:37;;;;;;;2.77;2.37;;;12.30;99.90;;;;;;5112431;27;20581;-54
2021/09/14 06:18:05;;;;;;;5.47;2.93;;;12.30;99.90;;;;;;5106477;27;20824;-53
2021/09/14 06:20:34;;;;;;;12.00;3.10;;;12.40;99.90;;;;;;5110841;27;20216;-52
2021/09/14 06:23:01;;;;;;;8.27;2.67;;;12.50;99.90;;;;;;5120562;27;20890;-52
2021/09/14 06:25:29;;;;;;;8.40;2.93;;;12.50;99.90;;;;;;5106336;27;20324;-56
2021/09/14 06:27:59;;;;;;;9.33;2.83;;;12.50;99.90;;;;;;5113970;28;20206;-54
2021/09/14 06:30:26;;;;;;;7.30;2.63;;;12.60;99.90;;;;;;5117393;27;20253;-57
2021/09/14 06:32:53;;;;;;;5.97;2.50;;;12.70;99.90;;;;;;5104597;27;20247;-55
2021/09/14 06:35:20;;;;;;;9.37;2.43;;;12.80;99.90;;;;;;5103380;27;20220;-56
2021/09/14 06:37:47;;;;;;;3.97;2.20;;;12.90;99.90;;;;;;5116736;27;20963;-54
2021/09/14 06:40:15;;;;;;;6.03;2.43;;;12.90;99.90;;;;;;5112116;27;20686;-56
2021/09/14 06:42:44;;;;;;;7.33;2.50;;;13.00;99.90;;;;;;5109210;27;20872;-54
2021/09/14 06:45:29;;;;;;;5.53;2.70;;;13.10;99.90;;;;;;5109837;28;20238;-55
2021/09/14 06:48:04;;;;;;;4.73;2.23;;;13.10;99.90;;;;;;5104880;27;20685;-54
2021/09/14 06:50:31;;;;;;;2.57;2.10;;;13.10;99.90;;;;;;5101260;27;20204;-53
2021/09/14 06:52:57;;;;;;;3.87;2.53;;;13.20;99.90;;;;;;5115605;27;20193;-50
2021/09/14 06:55:24;;;;;;;4.23;2.40;;;13.30;99.90;;;;;;5097386;27;20201;-57
2021/09/14 06:57:52;;;;;;;9.13;2.93;;;13.30;99.90;;;;;;5111666;27;20236;-54
2021/09/14 07:00:19;;;;;;;6.60;2.80;;;13.40;99.90;;;;;;5123364;27;20230;-54
2021/09/14 07:02:46;;;;;;;3.93;2.80;;;13.50;99.90;;;;;;5097600;27;20279;-53
2021/09/14 07:05:13;;;;;;;3.70;2.60;;;13.60;99.90;;;;;;5103631;27;20349;-52
2021/09/14 07:07:39;;;;;;;7.67;2.80;;;13.60;99.90;;;;;;5111038;27;20213;-55
2021/09/14 07:10:06;;;;;;;3.77;2.23;;;13.70;99.90;;;;;;5118714;27;20212;-53
2021/09/14 07:12:33;;;;;;;3.83;2.10;;;13.70;99.90;;;;;;5107710;27;20305;-52
2021/09/14 07:15:03;;;;;;;3.00;2.07;;;13.80;99.90;;;;;;5115449;27;20192;-52
2021/09/14 07:17:29;;;;;;;3.90;1.90;;;13.80;99.90;;;;;;5106381;27;20217;-55
2021/09/14 07:19:56;;;;;;;5.70;2.63;;;13.90;99.90;;;;;;5106087;27;20201;-53
2021/09/14 07:22:23;;;;;;;4.37;1.83;;;14.00;99.90;;;;;;5119132;27;20222;-55
2021/09/14 07:24:49;;;;;;;2.93;2.17;;;14.00;99.90;;;;;;5114518;27;20595;-54
2021/09/14 07:27:16;;;;;;;5.13;2.10;;;14.10;99.90;;;;;;5112782;27;20284;-55
2021/09/14 07:29:42;;;;;;;2.27;1.53;;;14.10;99.90;;;;;;5111916;27;20184;-54
2021/09/14 07:32:10;;;;;;;4.10;2.47;;;14.10;99.90;;;;;;5122908;27;20203;-54
2021/09/14 07:34:37;;;;;;;5.90;2.17;;;14.20;99.90;;;;;;5114681;27;20940;-55
2021/09/14 07:37:04;;;;;;;4.17;2.30;;;14.30;99.90;;;;;;5109638;27;20223;-54
2021/09/14 07:39:30;;;;;;;7.47;2.53;;;14.30;99.90;;;;;;5121923;27;20189;-52
2021/09/14 07:41:57;;;;;;;3.73;2.10;;;14.40;99.90;;;;;;5122079;27;20213;-55
2021/09/14 07:44:24;;;;;;;6.50;2.57;;;14.40;99.90;;;;;;5109709;27;20197;-53
2021/09/14 07:46:51;;;;;;;2.90;2.63;;;14.50;99.90;;;;;;5123547;27;20689;-50
2021/09/14 07:49:19;;;;;;;3.07;2.00;;;14.50;99.90;;;;;;5124144;27;20205;-54
2021/09/14 07:51:46;;;;;;;3.80;2.37;;;14.60;99.90;;;;;;5096790;27;20312;-53
2021/09/14 07:54:12;;;;;;;4.53;2.43;;;14.70;99.90;;;;;;5116688;27;20199;-53
2021/09/14 07:56:39;;;;;;;3.30;2.30;;;14.80;99.90;;;;;;5108461;27;20209;-52
2021/09/14 07:59:05;;;;;;;6.77;2.93;;;14.90;99.90;;;;;;5123955;27;20208;-52
2021/09/14 08:01:32;;;;;;;8.07;2.10;;;15.10;99.90;;;;;;5116651;27;20213;-52
2021/09/14 08:03:59;;;;;;;4.43;2.80;;;15.30;99.90;;;;;;5116578;27;20816;-53
2021/09/14 08:06:27;;;;;;;6.40;2.20;;;15.40;99.90;;;;;;5094484;27;20220;-52
2021/09/14 08:08:53;;;;;;;5.07;1.83;;;15.40;99.90;;;;;;5113522;27;20707;-54
2021/09/14 08:11:20;;;;;;;5.53;2.37;;;15.50;99.90;;;;;;5106718;27;20401;-54
2021/09/14 08:13:49;;;;;;;4.50;3.00;;;15.60;99.90;;;;;;5118812;27;20270;-49
2021/09/14 08:16:16;;;;;;;4.93;2.57;;;15.70;99.90;;;;;;5117083;27;20216;-50
2021/09/14 08:18:44;;;;;;;3.77;2.07;;;15.90;99.90;;;;;;5117035;27;20727;-49
2021/09/14 08:21:11;;;;;;;2.63;2.13;;;16.00;99.90;;;;;;5114425;27;20212;-52
2021/09/14 08:23:39;;;;;;;4.23;2.03;;;16.00;99.90;;;;;;5107026;27;20209;-50
2021/09/14 08:26:05;;;;;;;4.60;2.20;;;16.10;99.90;;;;;;5114134;27;20217;-56
2021/09/14 08:28:32;;;;;;;4.90;2.70;;;16.20;99.90;;;;;;5118403;27;20200;-51
2021/09/14 08:31:06;;;;;;;4.00;2.20;;;16.20;99.90;;;;;;5117449;27;20267;-53
2021/09/14 08:33:33;;;;;;;4.97;2.80;;;16.30;99.90;;;;;;5118860;27;20191;-50
2021/09/14 08:36:00;;;;;;;3.57;2.10;;;16.50;99.90;;;;;;5110955;27;20220;-50
2021/09/14 08:38:27;;;;;;;6.07;2.80;;;16.60;99.90;;;;;;5100065;27;20208;-52
2021/09/14 08:40:56;;;;;;;4.90;2.43;;;16.70;99.90;;;;;;5124153;27;20574;-50
2021/09/14 08:43:23;;;;;;;3.80;2.40;;;16.80;99.90;;;;;;5114847;27;20178;-51
2021/09/14 08:45:51;;;;;;;4.73;2.70;;;16.90;99.90;;;;;;5115663;27;20228;-53
2021/09/14 08:48:18;;;;;;;4.27;2.20;;;17.00;99.90;;;;;;5116921;27;20200;-54
2021/09/14 08:50:46;;;;;;;3.60;2.47;;;17.10;99.90;;;;;;5120483;27;20193;-53
2021/09/14 08:53:13;;;;;;;2.60;2.17;;;17.30;99.90;;;;;;5105900;27;20192;-55
2021/09/14 08:55:39;;;;;;;3.40;2.70;;;17.30;99.90;;;;;;5110752;27;20224;-51
2021/09/14 08:58:09;;;;;;;4.57;2.00;;;17.40;99.90;;;;;;5119017;27;20205;-54
2021/09/14 09:00:38;;;;;;;4.53;2.37;;;17.40;99.90;;;;;;5114300;27;20253;-53
2021/09/14 09:03:06;;;;;;;5.90;2.70;;;17.50;99.90;;;;;;5112372;27;20189;-54
2021/09/14 09:05:34;;;;;;;3.67;2.33;;;17.60;99.90;;;;;;5114222;27;20292;-51
2021/09/14 09:08:02;;;;;;;3.03;1.90;;;17.70;99.90;;;;;;5123416;27;20204;-55
2021/09/14 09:10:29;;;;;;;3.03;2.13;;;17.80;99.90;;;;;;5105374;27;20193;-53
2021/09/14 09:12:57;;;;;;;11.33;4.93;;;17.80;99.90;;;;;;5118286;27;20192;-53
2021/09/14 09:15:30;;;;;;;2.43;1.93;;;17.90;99.90;;;;;;5099720;27;20224;-50
2021/09/14 09:18:04;;;;;;;4.03;2.10;;;17.90;99.90;;;;;;5128481;27;20818;-54
2021/09/14 09:20:31;;;;;;;5.10;1.80;;;18.00;99.90;;;;;;5113705;27;20200;-50
2021/09/14 09:23:00;;;;;;;2.23;1.53;;;18.10;99.90;;;;;;5119105;27;20265;-53
2021/09/14 09:25:27;;;;;;;3.93;1.87;;;18.10;99.90;;;;;;5101198;27;20224;-51
2021/09/14 09:28:04;;;;;;;3.53;2.23;;;18.00;99.90;;;;;;5117276;27;20189;-54
2021/09/14 09:30:36;;;;;;;7.13;2.10;;;18.10;99.90;;;;;;5106575;27;20208;-51
2021/09/14 09:33:04;;;;;;;3.97;1.90;;;18.20;99.90;;;;;;5111684;27;20188;-52
2021/09/14 09:35:32;;;;;;;7.10;2.00;;;18.30;99.90;;;;;;5115024;27;20566;-53
2021/09/14 09:38:00;;;;;;;2.07;1.50;;;18.40;99.90;;;;;;5119920;27;20200;-51
2021/09/14 09:40:30;;;;;;;6.47;2.20;;;18.50;99.90;;;;;;5110969;27;20200;-52
2021/09/14 09:42:59;;;;;;;2.67;1.77;;;18.50;99.90;;;;;;5118435;27;20208;-51
2021/09/14 09:45:26;;;;;;;4.43;1.77;;;18.60;99.90;;;;;;5116093;27;20238;-53
2021/09/14 09:47:55;;;;;;;3.73;2.10;;;18.70;99.90;;;;;;5112084;27;20566;-56
2021/09/14 09:50:22;;;;;;;3.83;1.80;;;18.80;99.90;;;;;;5118391;27;20276;-52
2021/09/14 09:52:50;;;;;;;3.27;1.70;;;18.80;99.90;;;;;;5113253;27;20205;-53
2021/09/14 09:55:17;;;;;;;4.80;1.80;;;18.90;99.90;;;;;;5116789;27;20255;-55
2021/09/14 09:57:44;;;;;;;5.40;2.13;;;19.00;99.90;;;;;;5110197;27;20213;-54
2021/09/14 10:00:13;;;;;;;2.10;1.80;;;19.00;99.90;;;;;;5113385;28;20923;-51
2021/09/14 10:02:45;;;;;;;3.57;1.97;;;19.00;99.90;;;;;;5109172;27;20289;-56
2021/09/14 10:05:15;;;;;;;3.07;1.50;;;19.10;99.90;;;;;;5113756;28;20196;-53
2021/09/14 10:07:45;;;;;;;2.33;2.10;;;19.10;99.90;;;;;;5101278;28;20201;-56
2021/09/14 10:10:12;;;;;;;2.03;1.83;;;19.10;99.90;;;;;;5113780;27;20201;-51
2021/09/14 10:12:39;;;;;;;3.20;1.53;;;19.10;99.90;;;;;;5105782;27;20199;-55
2021/09/14 10:15:08;;;;;;;2.13;1.73;;;19.10;99.90;;;;;;5111145;27;20222;-51
2021/09/14 10:17:48;;;;;;;4.67;1.90;;;19.20;99.90;;;;;;5119761;27;20666;-55
2021/09/14 10:20:18;;;;;;;3.27;1.73;;;19.30;99.90;;;;;;5111819;27;20188;-51
2021/09/14 10:22:57;;;;;;;3.07;1.90;;;19.40;99.90;;;;;;5101310;28;20717;-53
2021/09/14 10:25:24;;;;;;;2.43;1.90;;;19.50;99.90;;;;;;5116229;27;20222;-56
2021/09/14 10:27:51;;;;;;;3.77;2.20;;;19.50;99.90;;;;;;5115322;27;20205;-55
2021/09/14 10:30:24;;;;;;;3.33;2.13;;;19.50;99.90;;;;;;5105850;27;20689;-51
2021/09/14 10:32:51;;;;;;;2.73;1.73;;;19.40;99.90;;;;;;5095517;27;20201;-54
2021/09/14 10:35:28;;;;;;;3.53;1.90;;;19.40;99.90;;;;;;5121534;27;20286;-52
2021/09/14 10:38:05;;;;;;;3.77;1.90;;;19.50;99.90;;;;;;5117657;27;20261;-53
2021/09/14 10:40:39;;;;;;;2.70;1.80;;;19.60;99.90;;;;;;5118336;27;20560;-50
2021/09/14 10:43:05;;;;;;;4.50;2.30;;;19.60;99.90;;;;;;5120387;27;20216;-54
2021/09/14 10:45:41;;;;;;;3.00;1.57;;;19.60;99.90;;;;;;5125223;27;20224;-55
2021/09/14 10:48:22;;;;;;;2.63;1.60;;;19.70;99.90;;;;;;5106803;27;20532;-50
2021/09/14 10:50:50;;;;;;;4.70;1.93;;;19.80;99.90;;;;;;5120598;27;20575;-54
2021/09/14 10:53:25;;;;;;;1.77;1.67;;;19.90;99.90;;;;;;5122456;27;20201;-54
2021/09/14 10:55:52;;;;;;;1.77;1.50;;;20.10;99.90;;;;;;5112881;27;20208;-51
2021/09/14 10:58:19;;;;;;;2.10;1.90;;;20.20;99.90;;;;;;5120668;27;20204;-52
2021/09/14 11:00:48;;;;;;;6.60;2.00;;;20.10;99.90;;;;;;5124949;27;20196;-51
2021/09/14 11:03:17;;;;;;;3.90;2.23;;;20.00;99.90;;;;;;5117230;27;20235;-55
2021/09/14 11:05:48;;;;;;;4.00;1.90;;;20.00;99.90;;;;;;5120148;27;20224;-54
2021/09/14 11:08:16;;;;;;;2.30;2.10;;;20.00;99.90;;;;;;5112340;27;20279;-51
2021/09/14 11:10:45;;;;;;;2.43;2.23;;;19.90;99.90;;;;;;5108487;27;20219;-55
2021/09/14 11:13:20;;;;;;;5.97;3.33;;;19.90;99.90;;;;;;5109878;27;20204;-50
2021/09/14 11:15:48;;;;;;;1.90;1.77;;;20.00;99.90;;;;;;5111734;27;20558;-56
2021/09/14 11:18:23;;;;;;;4.23;2.93;;;20.00;99.90;;;;;;5115077;27;20204;-56
2021/09/14 11:20:50;;;;;;;3.27;2.10;;;20.10;99.90;;;;;;5117169;27;20617;-53
2021/09/14 11:23:25;;;;;;;3.40;2.50;;;20.20;99.90;;;;;;5116187;27;20213;-51
2021/09/14 11:25:53;;;;;;;3.57;1.67;;;20.30;99.90;;;;;;5112541;27;20288;-53
2021/09/14 11:28:20;;;;;;;2.80;2.23;;;20.30;99.90;;;;;;5117665;27;20669;-51
2021/09/14 11:30:54;;;;;;;2.93;2.43;;;20.30;99.90;;;;;;5100230;27;20227;-56
2021/09/14 11:33:21;;;;;;;3.10;2.03;;;20.30;99.90;;;;;;5111894;27;20917;-53
2021/09/14 11:35:48;;;;;;;5.77;2.77;;;20.30;99.90;;;;;;5115181;27;20209;-55
2021/09/14 11:38:18;;;;;;;4.67;2.17;;;20.30;99.90;;;;;;5122370;27;20552;-55
2021/09/14 11:40:49;;;;;;;2.60;2.20;;;20.20;99.90;;;;;;5119196;27;20208;-53
2021/09/14 11:43:19;;;;;;;3.07;2.00;;;20.10;99.90;;;;;;5113367;27;20220;-54
2021/09/14 11:45:46;;;;;;;4.07;2.57;;;20.10;99.90;;;;;;5115043;27;20225;-54
2021/09/14 11:48:17;;;;;;;6.30;2.50;;;20.20;99.90;;;;;;5111606;27;20646;-53
2021/09/14 11:50:44;;;;;;;3.27;2.20;;;20.30;99.90;;;;;;5115205;27;20192;-50
2021/09/14 11:53:16;;;;;;;2.87;2.13;;;20.40;99.90;;;;;;5109802;27;20203;-54
2021/09/14 11:55:45;;;;;;;5.27;3.07;;;20.40;99.90;;;;;;5114415;27;20224;-54
2021/09/14 11:58:14;;;;;;;7.97;2.67;;;20.50;99.90;;;;;;5108131;27;20288;-52
2021/09/14 12:00:43;;;;;;;3.63;2.60;;;20.70;99.90;;;;;;5109418;27;20216;-55
2021/09/14 12:03:11;;;;;;;2.90;2.00;;;20.80;99.90;;;;;;5110180;27;20576;-54
2021/09/14 12:05:39;;;;;;;4.17;2.00;;;20.80;99.90;;;;;;5120597;27;20216;-54
2021/09/14 12:08:10;;;;;;;3.67;2.57;;;20.70;99.90;;;;;;5127682;27;20203;-56
2021/09/14 12:10:45;;;;;;;5.50;2.23;;;20.80;99.90;;;;;;5119863;27;20934;-53
2021/09/14 12:13:18;;;;;;;3.60;1.93;;;20.90;99.90;;;;;;5113490;27;20192;-54
2021/09/14 12:15:46;;;;;;;4.43;2.20;;;20.90;99.90;;;;;;5109388;27;20216;-50
2021/09/14 12:18:14;;;;;;;4.63;2.30;;;20.90;99.90;;;;;;5123444;27;20190;-54
2021/09/14 12:20:42;;;;;;;2.00;1.90;;;20.90;99.90;;;;;;5109810;27;20281;-54
2021/09/14 12:23:09;;;;;;;2.33;2.07;;;20.90;99.90;;;;;;5107689;27;20220;-51
2021/09/14 12:25:35;;;;;;;2.67;2.20;;;20.80;99.90;;;;;;5107922;27;20225;-56
2021/09/14 12:28:02;;;;;;;3.27;1.70;;;20.80;99.90;;;;;;5124287;27;20185;-56
2021/09/14 12:30:31;;;;;;;2.17;2.07;;;20.70;99.90;;;;;;5124998;27;20184;-56
2021/09/14 12:32:57;;;;;;;2.80;2.13;;;20.70;99.90;;;;;;5112180;27;20200;-55
2021/09/14 12:35:24;;;;;;;2.77;2.57;;;20.70;99.90;;;;;;5112452;27;20219;-56
2021/09/14 12:37:51;;;;;;;3.37;2.23;;;20.90;99.90;;;;;;5120720;27;20204;-55
2021/09/14 12:40:18;;;;;;;3.03;2.40;;;21.10;99.90;;;;;;5115875;27;20297;-55
2021/09/14 12:42:44;;;;;;;2.97;2.23;;;21.20;99.90;;;;;;5119849;27;20580;-51
2021/09/14 12:45:12;;;;;;;3.27;2.10;;;21.20;99.90;;;;;;5123258;27;20223;-55
2021/09/14 12:47:40;;;;;;;3.30;2.60;;;21.30;99.90;;;;;;5126040;27;20223;-53
2021/09/14 12:50:08;;;;;;;2.40;2.20;;;21.40;99.90;;;;;;5115708;27;20193;-52
2021/09/14 12:52:34;;;;;;;3.83;2.47;;;21.60;99.90;;;;;;5102935;28;20190;-51
2021/09/14 12:55:01;;;;;;;5.80;2.73;;;21.60;99.90;;;;;;5116517;27;20650;-55
2021/09/14 12:57:28;;;;;;;4.13;2.53;;;21.70;99.90;;;;;;5116741;27;20603;-54
2021/09/14 12:59:54;;;;;;;2.65;2.45;;;21.70;99.90;;;;;;5110266;27;20216;-53
2021/09/14 13:02:21;;;;;;;3.50;2.38;;;21.70;99.90;;;;;;5114558;27;20872;-53
2021/09/14 13:04:49;;;;;;;3.17;2.38;;;21.80;99.90;;;;;;5123282;27;20654;-56
2021/09/14 13:07:16;;;;;;;2.38;2.28;;;21.90;99.90;;;;;;5122710;27;20555;-56
2021/09/14 13:09:43;;;;;;;2.90;2.70;;;22.00;99.90;;;;;;5108584;27;20529;-54
2021/09/14 13:12:11;;;;;;;2.88;2.53;;;22.10;99.90;;;;;;5125540;27;20197;-56
2021/09/14 13:17:22;;;;;;;4.32;2.42;;;22.40;99.90;;;;;;5096304;27;20279;-52
2021/09/14 13:19:49;;;;;;;3.00;2.80;;;22.70;99.90;;;;;;5145199;27;20680;-53
2021/09/14 13:22:16;;;;;;;3.63;2.53;;;23.10;99.90;;;;;;5129079;27;20207;-54
2021/09/14 13:24:43;;;;;;;2.97;2.67;;;23.40;99.90;;;;;;5122854;27;20206;-55
2021/09/14 13:27:09;;;;;;;2.63;2.30;;;23.60;99.90;;;;;;5108395;27;20256;-49
2021/09/14 13:29:36;;;;;;;2.70;2.50;;;23.60;99.90;;;;;;5117946;27;20200;-50
2021/09/14 13:32:03;;;;;;;2.42;2.22;;;23.70;99.90;;;;;;5110308;27;20263;-53
2021/09/14 13:34:30;;;;;;;2.50;2.30;;;24.00;99.90;;;;;;5109721;27;20206;-54
2021/09/14 13:36:58;;;;;;;3.25;2.95;;;24.20;99.90;;;;;;5121580;27;20732;-55
2021/09/14 13:39:25;;;;;;;3.92;2.50;;;24.40;99.90;;;;;;5112108;27;20177;-56
2021/09/14 13:41:53;;;;;;;2.33;2.13;;;24.60;99.90;;;;;;5124001;27;20212;-54
2021/09/14 13:47:08;;;;;;;2.60;2.40;;;24.90;99.90;;;;;;5135161;27;20668;-51